Main page
METAR-TAF:

METAR-TAF

Airports :

Bou Saâda, Algeria

Bou Saada Airport

latitude: 35-20N, longitude: 004-12E, elevation: 461 m

Current weather observation

The report was made 47 minutes ago, at 16:00 UTC
Wind 14 kt from the East
Temperature 39°C
Humidity 12%
Pressure 1015 hPa
Visibility: 1000 m
Broken clouds at a height of 3300 ft
Blowing dust

METAR: DAAD 221600Z 09014KT 1000 BLDU BKN033 39/05 Q1015 RETS

Time: 17:47 (16:47 UTC)

Forecast

The report was made 2 hours and 47 minutes ago, at 14:00 UTC
Forecast valid from 22 at 15 UTC to 22 at 24 UTC
Wind 12 kt from the West
Visibility: 6000 m
Scattered clouds at a height of 3000 ft
Temporary
from 22 at 15 UTC to 22 at 20 UTC
Wind 15 kt from the West with gusts up to 25 kt
Visibility: 4000 m
Few clouds at a height of 3300 ft, Cumulonimbus.
thunderstorm, light rain

TAF: DAAD 221400Z 2215/2224 26012KT 6000 SCT030 TEMPO 2215/2220 26015G25KT 4000 -TSRA FEW033CB

Weather observations and forecasts of more than 4000 airports (METAR and TAF reports).

The available stations are represented by yellow and red dots on the map.

Hover mouse over dot to see the name of the station.

Then click to see weather observations and forecasts.

To change the map : click on the green buttons with a black cross to zoom in, on the green button with a dash to zoom out, or on the green arrows for adjacent maps.


METAR-TAF: